createdAt,value
2018-01-22T00:00:08.106Z,87.20
2018-01-22T00:01:08.176Z,87.20
2018-01-22T00:02:06.452Z,87.20
2018-01-22T00:03:09.157Z,87.30
2018-01-22T00:04:05.629Z,87.30
2018-01-22T00:05:05.941Z,87.30
2018-01-22T00:06:06.535Z,87.30
2018-01-22T00:07:09.370Z,87.30
2018-01-22T00:08:09.022Z,87.30
2018-01-22T00:09:06.569Z,87.30
2018-01-22T00:10:08.756Z,87.30
2018-01-22T00:11:13.759Z,87.40
2018-01-22T00:12:11.155Z,87.40
2018-01-22T00:13:06.208Z,87.30
2018-01-22T00:14:11.526Z,87.20
2018-01-22T00:15:09.212Z,87.20
2018-01-22T00:16:05.721Z,87.20
2018-01-22T00:17:05.963Z,87.20
2018-01-22T00:18:06.091Z,87.10
2018-01-22T00:19:06.561Z,87.10
2018-01-22T00:20:06.117Z,87.10
2018-01-22T00:21:05.949Z,87.20
2018-01-22T00:22:05.962Z,87.20
2018-01-22T00:23:06.131Z,87.20
2018-01-22T00:24:05.625Z,87.20
2018-01-22T00:25:06.658Z,87.30
2018-01-22T00:26:06.219Z,87.30
2018-01-22T00:27:05.887Z,87.30
2018-01-22T00:28:11.480Z,87.40
2018-01-22T00:29:06.131Z,87.40
2018-01-22T00:30:06.338Z,87.50
2018-01-22T00:31:08.425Z,87.60
2018-01-22T00:32:06.135Z,87.60
2018-01-22T00:33:08.461Z,87.70
2018-01-22T00:34:05.927Z,87.70
2018-01-22T00:35:10.689Z,87.70
2018-01-22T00:36:06.049Z,87.70
2018-01-22T00:37:13.328Z,87.80
2018-01-22T00:38:10.792Z,87.80
2018-01-22T00:39:05.952Z,87.80
2018-01-22T00:40:08.232Z,87.80
2018-01-22T00:41:08.397Z,87.80
2018-01-22T00:42:05.738Z,87.80
2018-01-22T00:43:11.385Z,87.90
2018-01-22T00:44:05.817Z,87.80
2018-01-22T00:45:10.757Z,87.90
2018-01-22T00:46:06.077Z,88.00
2018-01-22T00:47:05.809Z,87.90
2018-01-22T00:48:06.350Z,88.00
2018-01-22T00:49:08.415Z,88.00
2018-01-22T00:50:10.522Z,87.90
2018-01-22T00:51:05.881Z,88.00
2018-01-22T00:52:09.267Z,88.00
2018-01-22T00:53:08.236Z,87.90
2018-01-22T00:54:09.222Z,87.90
2018-01-22T00:55:05.907Z,87.90
2018-01-22T00:56:06.276Z,87.90
2018-01-22T00:57:06.055Z,87.90
2018-01-22T00:58:09.134Z,87.90
2018-01-22T00:59:05.586Z,87.90
2018-01-22T01:00:07.249Z,87.90
2018-01-22T01:01:08.602Z,87.90
2018-01-22T01:02:16.097Z,87.90
2018-01-22T01:03:10.669Z,87.90
2018-01-22T01:04:09.537Z,87.90
2018-01-22T01:05:06.056Z,87.80
2018-01-22T01:06:05.694Z,87.90
2018-01-22T01:07:08.987Z,87.90
2018-01-22T01:08:09.039Z,87.90
2018-01-22T01:09:06.469Z,87.80
2018-01-22T01:10:06.198Z,87.90
2018-01-22T01:11:08.797Z,88.00
2018-01-22T01:12:06.357Z,88.00
2018-01-22T01:13:11.119Z,88.00
2018-01-22T01:14:10.691Z,88.10
2018-01-22T01:15:10.988Z,88.10
2018-01-22T01:16:06.137Z,88.10
2018-01-22T01:17:08.764Z,88.10
2018-01-22T01:18:06.186Z,88.10
2018-01-22T01:19:06.233Z,88.10
2018-01-22T01:20:10.901Z,88.10
2018-01-22T01:21:11.352Z,88.10
2018-01-22T01:22:08.958Z,88.20
2018-01-22T01:23:05.786Z,88.20
2018-01-22T01:24:10.636Z,88.20
2018-01-22T01:25:05.760Z,88.20
2018-01-22T01:26:06.305Z,88.20
2018-01-22T01:27:06.157Z,88.20
2018-01-22T01:28:08.338Z,88.20
2018-01-22T01:29:05.775Z,88.20
2018-01-22T01:30:06.387Z,88.30
2018-01-22T01:31:05.928Z,88.20
2018-01-22T01:32:05.658Z,88.20
2018-01-22T01:33:08.530Z,88.20
2018-01-22T01:34:06.074Z,88.20
2018-01-22T01:35:08.204Z,88.20
2018-01-22T01:36:06.318Z,88.30
2018-01-22T01:37:08.510Z,88.40
2018-01-22T01:38:05.723Z,88.40
2018-01-22T01:39:05.624Z,88.50
2018-01-22T01:40:05.830Z,88.60
2018-01-22T01:41:08.864Z,88.60
2018-01-22T01:42:06.433Z,88.60
2018-01-22T01:43:06.304Z,88.60
2018-01-22T01:44:06.241Z,88.60
2018-01-22T01:45:08.088Z,88.70
2018-01-22T01:46:05.509Z,88.60
2018-01-22T01:47:05.536Z,88.60
2018-01-22T01:48:05.640Z,88.70
2018-01-22T01:49:10.726Z,88.60
2018-01-22T01:50:05.973Z,88.70
2018-01-22T01:51:05.946Z,88.70
2018-01-22T01:52:06.110Z,88.60
2018-01-22T01:53:05.942Z,88.60
2018-01-22T01:54:05.901Z,88.60
2018-01-22T01:55:08.246Z,88.50
2018-01-22T01:56:10.990Z,88.50
2018-01-22T01:57:09.207Z,88.50
2018-01-22T01:58:05.790Z,88.60
2018-01-22T01:59:08.649Z,88.50
2018-01-22T02:00:06.108Z,88.50
2018-01-22T02:01:05.747Z,88.40
2018-01-22T02:02:06.331Z,88.40
2018-01-22T02:03:06.243Z,88.40
2018-01-22T02:04:08.304Z,88.30
2018-01-22T02:05:18.540Z,88.30
2018-01-22T02:06:09.218Z,88.20
2018-01-22T02:07:09.980Z,88.30
2018-01-22T02:08:09.005Z,88.20
2018-01-22T02:09:05.980Z,88.30
2018-01-22T02:10:06.087Z,88.20
2018-01-22T02:11:05.899Z,88.10
2018-01-22T02:12:06.434Z,88.10
2018-01-22T02:13:09.234Z,88.10
2018-01-22T02:14:05.638Z,88.00
2018-01-22T02:15:09.093Z,88.00
2018-01-22T02:16:05.754Z,88.00
2018-01-22T02:17:06.489Z,87.90
2018-01-22T02:18:05.788Z,87.90
2018-01-22T02:19:06.084Z,87.90
2018-01-22T02:20:06.059Z,87.90
2018-01-22T02:21:05.969Z,87.90
2018-01-22T02:22:05.515Z,87.80
2018-01-22T02:23:08.720Z,87.70
2018-01-22T02:24:09.600Z,87.60
2018-01-22T02:25:11.127Z,87.60
2018-01-22T02:26:06.538Z,87.60
2018-01-22T02:27:11.246Z,87.40
2018-01-22T02:28:07.965Z,87.40
2018-01-22T02:29:11.059Z,87.50
2018-01-22T02:30:06.438Z,87.40
2018-01-22T02:31:11.033Z,87.30
2018-01-22T02:32:06.491Z,87.30
2018-01-22T02:33:06.318Z,87.30
2018-01-22T02:34:09.158Z,87.20
2018-01-22T02:35:10.679Z,87.30
2018-01-22T02:36:08.850Z,87.10
2018-01-22T02:37:06.419Z,87.10
2018-01-22T02:38:11.240Z,86.90
2018-01-22T02:39:05.792Z,86.90
2018-01-22T02:40:06.587Z,86.80
2018-01-22T02:41:11.235Z,86.60
2018-01-22T02:42:09.739Z,86.60
2018-01-22T02:43:11.261Z,86.50
2018-01-22T02:44:05.684Z,86.50
2018-01-22T02:45:08.900Z,86.40
2018-01-22T02:46:08.880Z,86.40
2018-01-22T02:47:06.311Z,86.40
2018-01-22T02:48:05.500Z,86.40
2018-01-22T02:49:11.433Z,86.20
2018-01-22T02:50:08.386Z,86.20
2018-01-22T02:51:05.797Z,86.20
2018-01-22T02:52:11.378Z,86.20
2018-01-22T02:53:06.021Z,86.10
2018-01-22T02:54:05.689Z,86.20
2018-01-22T02:55:05.857Z,86.10
2018-01-22T02:56:06.192Z,86.00
2018-01-22T02:57:05.996Z,85.90
2018-01-22T02:58:06.567Z,85.90
2018-01-22T02:59:05.693Z,85.80
2018-01-22T03:00:06.440Z,85.80
2018-01-22T03:01:06.207Z,85.70
2018-01-22T03:02:08.662Z,85.50
2018-01-22T03:03:06.115Z,85.50
2018-01-22T03:04:05.723Z,85.50
2018-01-22T03:05:06.637Z,85.60
2018-01-22T03:06:09.600Z,85.60
2018-01-22T03:07:09.620Z,85.60
2018-01-22T03:08:06.401Z,85.70
2018-01-22T03:09:06.224Z,85.50
2018-01-22T03:10:06.005Z,85.50
2018-01-22T03:11:05.653Z,85.60
2018-01-22T03:12:06.272Z,85.70
2018-01-22T03:13:10.968Z,85.70
2018-01-22T03:14:06.770Z,85.70
2018-01-22T03:15:05.835Z,85.70
2018-01-22T03:16:06.282Z,85.70
2018-01-22T03:17:08.888Z,85.70
2018-01-22T03:18:06.612Z,85.70
2018-01-22T03:19:11.617Z,85.70
2018-01-22T03:20:11.197Z,85.60
2018-01-22T03:21:05.731Z,85.60
2018-01-22T03:22:05.865Z,85.70
2018-01-22T03:23:08.913Z,85.70
2018-01-22T03:24:06.286Z,85.80
2018-01-22T03:25:11.079Z,85.80
2018-01-22T03:26:06.362Z,85.80
2018-01-22T03:27:08.908Z,85.80
2018-01-22T03:28:06.618Z,85.80
2018-01-22T03:29:05.597Z,85.80
2018-01-22T03:30:10.671Z,85.80
2018-01-22T03:31:06.148Z,85.80
2018-01-22T03:32:09.184Z,85.80
2018-01-22T03:33:10.716Z,85.80
2018-01-22T03:34:06.050Z,85.80
2018-01-22T03:35:08.793Z,85.80
2018-01-22T03:36:11.344Z,85.80
2018-01-22T03:37:08.377Z,85.80
2018-01-22T03:38:10.928Z,85.90
2018-01-22T03:39:08.637Z,85.90
2018-01-22T03:40:08.690Z,85.80
2018-01-22T03:41:09.297Z,85.80
2018-01-22T03:42:06.107Z,85.80
2018-01-22T03:43:05.836Z,85.80
2018-01-22T03:44:09.688Z,85.80
2018-01-22T03:45:09.438Z,85.90
2018-01-22T03:46:11.021Z,85.90
2018-01-22T03:47:10.570Z,85.90
2018-01-22T03:48:06.188Z,85.80
2018-01-22T03:49:09.200Z,85.80
2018-01-22T03:50:05.928Z,85.80
2018-01-22T03:51:06.517Z,85.80
2018-01-22T03:52:06.104Z,85.80
2018-01-22T03:53:06.052Z,85.60
2018-01-22T03:54:06.316Z,85.60
2018-01-22T03:55:05.470Z,85.60
2018-01-22T03:56:05.595Z,85.50
2018-01-22T03:57:06.368Z,85.50
2018-01-22T03:58:11.187Z,85.50
2018-01-22T03:59:06.681Z,85.50
2018-01-22T04:00:11.176Z,85.40
2018-01-22T04:01:05.730Z,85.50
2018-01-22T04:02:05.943Z,85.50
2018-01-22T04:03:13.314Z,85.40
2018-01-22T04:04:09.589Z,85.40
2018-01-22T04:05:08.939Z,85.30
2018-01-22T04:06:10.627Z,85.30
2018-01-22T04:07:13.800Z,85.40
2018-01-22T04:08:11.259Z,85.40
2018-01-22T04:09:05.783Z,85.30
2018-01-22T04:10:13.382Z,85.40
2018-01-22T04:11:08.392Z,85.30
2018-01-22T04:12:06.354Z,85.30
2018-01-22T04:13:05.707Z,85.40
2018-01-22T04:14:05.782Z,85.30
2018-01-22T04:15:06.468Z,85.30
2018-01-22T04:16:05.812Z,85.30
2018-01-22T04:17:08.769Z,85.20
2018-01-22T04:18:06.226Z,85.20
2018-01-22T04:19:06.507Z,85.20
2018-01-22T04:20:06.177Z,85.20
2018-01-22T04:21:08.221Z,85.20
2018-01-22T04:22:10.724Z,85.30
2018-01-22T04:23:06.277Z,85.20
2018-01-22T04:24:10.917Z,85.30
2018-01-22T04:25:11.330Z,85.30
2018-01-22T04:26:05.519Z,85.30
2018-01-22T04:27:05.846Z,85.30
2018-01-22T04:28:11.288Z,85.20
2018-01-22T04:29:05.912Z,85.20
2018-01-22T04:30:05.917Z,85.30
2018-01-22T04:31:05.544Z,85.20
2018-01-22T04:32:06.526Z,85.30
2018-01-22T04:33:09.657Z,85.20
2018-01-22T04:34:06.141Z,85.30
2018-01-22T04:35:09.166Z,85.40
2018-01-22T04:36:10.798Z,85.40
2018-01-22T04:37:06.260Z,85.40
2018-01-22T04:38:06.193Z,85.40
2018-01-22T04:39:05.967Z,85.40
2018-01-22T04:40:08.136Z,85.50
2018-01-22T04:41:08.034Z,85.50
2018-01-22T04:42:10.503Z,85.50
2018-01-22T04:43:08.730Z,85.60
2018-01-22T04:44:06.382Z,85.60
2018-01-22T04:45:11.296Z,85.60
2018-01-22T04:46:09.047Z,85.70
2018-01-22T04:47:05.551Z,85.70
2018-01-22T04:48:10.836Z,85.70
2018-01-22T04:49:09.293Z,85.70
2018-01-22T04:50:05.931Z,85.80
2018-01-22T04:51:08.027Z,85.80
2018-01-22T04:52:09.757Z,85.90
2018-01-22T04:53:09.053Z,85.80
2018-01-22T04:54:05.558Z,85.70
2018-01-22T04:55:05.984Z,85.70
2018-01-22T04:56:11.020Z,85.70
2018-01-22T04:57:06.445Z,85.70
2018-01-22T04:58:06.159Z,85.70
2018-01-22T04:59:11.339Z,85.70
2018-01-22T05:00:05.497Z,85.70
2018-01-22T05:01:06.153Z,85.80
2018-01-22T05:02:05.801Z,85.90
2018-01-22T05:03:06.568Z,85.70
2018-01-22T05:04:05.980Z,85.70
2018-01-22T05:05:05.513Z,85.80
2018-01-22T05:06:06.340Z,85.70
2018-01-22T05:07:09.078Z,85.80
2018-01-22T05:08:05.561Z,85.70
2018-01-22T05:09:06.191Z,85.80
2018-01-22T05:10:10.910Z,85.60
2018-01-22T05:11:11.363Z,85.60
2018-01-22T05:12:05.852Z,85.60
2018-01-22T05:13:05.948Z,85.50
2018-01-22T05:14:10.676Z,85.50
2018-01-22T05:15:11.083Z,85.40
2018-01-22T05:16:05.762Z,85.40
2018-01-22T05:17:11.326Z,85.30
2018-01-22T05:18:05.748Z,85.10
2018-01-22T05:19:05.821Z,85.10
2018-01-22T05:20:08.973Z,85.00
2018-01-22T05:21:11.510Z,84.90
2018-01-22T05:22:09.841Z,84.80
2018-01-22T05:23:06.052Z,84.80
2018-01-22T05:24:09.073Z,84.90
2018-01-22T05:25:09.415Z,84.80
2018-01-22T05:26:06.076Z,84.80
2018-01-22T05:27:09.539Z,84.60
2018-01-22T05:28:06.226Z,84.60
2018-01-22T05:29:10.664Z,84.50
2018-01-22T05:30:08.333Z,84.20
2018-01-22T05:31:05.994Z,84.10
2018-01-22T05:32:11.078Z,84.00
2018-01-22T05:33:06.422Z,83.30
2018-01-22T05:34:09.407Z,84.20
2018-01-22T05:35:10.916Z,84.30
2018-01-22T05:36:06.356Z,84.30
2018-01-22T05:37:06.044Z,84.30
2018-01-22T05:38:08.463Z,84.30
2018-01-22T05:39:10.959Z,84.30
2018-01-22T05:40:06.500Z,84.30
2018-01-22T05:41:06.081Z,84.20
2018-01-22T05:42:05.941Z,84.10
2018-01-22T05:43:09.750Z,84.10
2018-01-22T05:44:06.366Z,84.20
2018-01-22T05:45:06.082Z,84.00
2018-01-22T05:46:10.834Z,83.80
2018-01-22T05:47:06.573Z,83.80
2018-01-22T05:48:05.999Z,83.80
2018-01-22T05:49:06.177Z,83.80
2018-01-22T05:50:06.097Z,83.90
2018-01-22T05:51:08.846Z,83.80
2018-01-22T05:52:06.225Z,83.80
2018-01-22T05:53:06.363Z,83.60
2018-01-22T05:54:05.538Z,83.80
2018-01-22T05:55:09.055Z,83.80
2018-01-22T05:56:05.654Z,83.80
2018-01-22T05:57:11.151Z,83.90
2018-01-22T05:58:06.151Z,83.80
2018-01-22T05:59:08.447Z,83.90
2018-01-22T06:00:05.898Z,83.90
2018-01-22T06:01:10.818Z,83.90
2018-01-22T06:02:06.078Z,83.90
2018-01-22T06:03:05.823Z,83.90
2018-01-22T06:04:08.685Z,83.90
2018-01-22T06:05:06.224Z,83.90
2018-01-22T06:06:05.750Z,84.00
2018-01-22T06:07:05.930Z,84.10
2018-01-22T06:08:10.639Z,84.10
2018-01-22T06:09:05.849Z,84.20
2018-01-22T06:10:06.250Z,84.10
2018-01-22T06:11:11.240Z,84.10
2018-01-22T06:12:09.831Z,84.30
2018-01-22T06:13:11.439Z,84.10
2018-01-22T06:14:09.147Z,84.30
2018-01-22T06:15:05.688Z,84.10
2018-01-22T06:16:09.003Z,84.20
2018-01-22T06:17:05.891Z,84.20
2018-01-22T06:18:09.170Z,84.30
2018-01-22T06:19:05.869Z,84.30
2018-01-22T06:20:08.885Z,84.30
2018-01-22T06:21:08.890Z,84.30
2018-01-22T06:22:13.794Z,84.30
2018-01-22T06:23:11.303Z,84.30
2018-01-22T06:24:08.999Z,84.30
2018-01-22T06:25:11.472Z,84.30
2018-01-22T06:26:05.848Z,84.30
2018-01-22T06:27:09.518Z,84.20
2018-01-22T06:28:06.050Z,84.20
2018-01-22T06:29:05.934Z,84.30
2018-01-22T06:30:10.731Z,84.20
2018-01-22T06:31:09.206Z,84.20
2018-01-22T06:32:05.612Z,84.20
2018-01-22T06:33:18.923Z,84.20
2018-01-22T06:34:05.704Z,84.30
2018-01-22T06:35:06.165Z,84.20
2018-01-22T06:36:06.118Z,84.30
2018-01-22T06:37:06.308Z,84.20
2018-01-22T06:38:08.464Z,84.30
2018-01-22T06:39:11.070Z,84.20
2018-01-22T06:40:11.365Z,84.30
2018-01-22T06:41:05.778Z,84.10
2018-01-22T06:42:05.553Z,84.10
2018-01-22T06:43:05.784Z,84.10
2018-01-22T06:44:05.909Z,84.10
2018-01-22T06:45:10.974Z,83.90
2018-01-22T06:46:06.597Z,83.80
2018-01-22T06:47:06.354Z,83.80
2018-01-22T06:48:06.100Z,83.80
2018-01-22T06:49:08.517Z,83.80
2018-01-22T06:50:05.935Z,83.80
2018-01-22T06:51:08.620Z,83.80
2018-01-22T06:52:06.303Z,83.80
2018-01-22T06:53:06.135Z,83.90
2018-01-22T06:54:10.878Z,84.00
2018-01-22T06:55:10.232Z,83.90
2018-01-22T06:56:06.259Z,83.90
2018-01-22T06:57:06.220Z,83.90
2018-01-22T06:58:06.331Z,83.90
2018-01-22T06:59:05.916Z,83.90
2018-01-22T07:00:05.717Z,83.90
2018-01-22T07:01:10.714Z,83.90
2018-01-22T07:02:06.300Z,83.90
2018-01-22T07:03:13.638Z,83.90
2018-01-22T07:04:06.170Z,83.90
2018-01-22T07:05:05.811Z,83.90
2018-01-22T07:06:06.398Z,83.90
2018-01-22T07:07:10.296Z,84.00
2018-01-22T07:08:08.996Z,83.90
2018-01-22T07:09:06.557Z,83.90
2018-01-22T07:10:10.776Z,83.90
2018-01-22T07:11:06.535Z,83.90
2018-01-22T07:12:06.604Z,83.90
2018-01-22T07:13:06.306Z,83.90
2018-01-22T07:14:11.033Z,84.00
2018-01-22T07:15:06.314Z,84.00
2018-01-22T07:16:06.607Z,83.90
2018-01-22T07:17:11.507Z,84.00
2018-01-22T07:18:10.535Z,84.00
2018-01-22T07:19:05.747Z,84.00
2018-01-22T07:20:11.387Z,84.00
2018-01-22T07:21:08.346Z,84.10
2018-01-22T07:22:10.894Z,84.10
2018-01-22T07:23:06.226Z,84.10
2018-01-22T07:24:10.941Z,84.00
2018-01-22T07:25:06.433Z,83.90
2018-01-22T07:26:05.429Z,84.00
2018-01-22T07:27:05.534Z,83.90
2018-01-22T07:28:09.203Z,83.60
2018-01-22T07:29:09.100Z,83.70
2018-01-22T07:30:05.781Z,83.70
2018-01-22T07:31:05.709Z,83.70
2018-01-22T07:32:11.050Z,83.70
2018-01-22T07:33:05.703Z,83.70
2018-01-22T07:34:06.031Z,83.70
2018-01-22T07:35:06.484Z,83.70
2018-01-22T07:36:06.189Z,83.70
2018-01-22T07:37:11.578Z,83.70
2018-01-22T07:38:08.741Z,83.80
2018-01-22T07:39:09.354Z,83.80
2018-01-22T07:40:08.381Z,83.70
2018-01-22T07:41:05.894Z,58.00
2018-01-22T07:42:09.270Z,83.70
2018-01-22T07:43:10.941Z,83.80
2018-01-22T07:44:06.357Z,83.80
2018-01-22T07:45:06.558Z,83.80
2018-01-22T07:46:06.328Z,83.80
2018-01-22T07:47:05.908Z,83.60
2018-01-22T07:48:09.631Z,83.60
2018-01-22T07:49:06.156Z,83.60
2018-01-22T07:50:10.980Z,83.50
2018-01-22T07:51:06.468Z,83.40
2018-01-22T07:52:08.224Z,83.40
2018-01-22T07:53:05.599Z,83.40
2018-01-22T07:54:05.790Z,83.40
2018-01-22T07:55:11.519Z,83.50
2018-01-22T07:56:05.802Z,83.50
2018-01-22T07:57:09.525Z,83.60
2018-01-22T07:58:05.975Z,83.40
2018-01-22T07:59:10.914Z,83.50
2018-01-22T08:00:06.123Z,83.40
2018-01-22T08:01:10.821Z,83.10
2018-01-22T08:02:08.979Z,82.60
2018-01-22T08:03:06.471Z,82.60
2018-01-22T08:04:06.354Z,82.50
2018-01-22T08:05:06.473Z,82.50
2018-01-22T08:06:09.562Z,82.40
2018-01-22T08:07:11.123Z,82.40
2018-01-22T08:08:06.836Z,82.40
2018-01-22T08:09:09.046Z,82.30
2018-01-22T08:10:08.106Z,82.50
2018-01-22T08:11:05.901Z,82.40
2018-01-22T08:12:05.579Z,82.40
2018-01-22T08:13:05.650Z,82.20
2018-01-22T08:14:05.786Z,81.80
2018-01-22T08:15:08.583Z,81.70
2018-01-22T08:16:09.205Z,81.90
2018-01-22T08:17:05.790Z,81.90
2018-01-22T08:18:08.595Z,82.00
2018-01-22T08:19:06.282Z,82.00
2018-01-22T08:20:06.468Z,82.10
2018-01-22T08:21:11.161Z,82.00
2018-01-22T08:22:05.895Z,82.00
2018-01-22T08:23:06.661Z,82.10
2018-01-22T08:24:06.635Z,82.00
2018-01-22T08:25:11.217Z,82.20
2018-01-22T08:26:05.774Z,82.20
2018-01-22T08:27:06.440Z,82.20
2018-01-22T08:28:09.510Z,82.30
2018-01-22T08:29:06.022Z,82.30
2018-01-22T08:30:11.310Z,82.50
2018-01-22T08:31:05.676Z,82.50
2018-01-22T08:32:05.832Z,82.60
2018-01-22T08:33:09.563Z,82.70
2018-01-22T08:34:06.154Z,82.70
2018-01-22T08:35:10.799Z,82.70
2018-01-22T08:36:06.017Z,82.70
2018-01-22T08:37:05.892Z,82.50
2018-01-22T08:38:09.053Z,82.00
2018-01-22T08:39:10.623Z,82.00
2018-01-22T08:40:08.606Z,82.00
2018-01-22T08:41:06.207Z,82.00
2018-01-22T08:42:06.046Z,82.10
2018-01-22T08:43:05.647Z,82.10
2018-01-22T08:44:06.107Z,82.00
2018-01-22T08:45:10.500Z,82.20
2018-01-22T08:46:10.870Z,82.20
2018-01-22T08:47:09.120Z,82.20
2018-01-22T08:48:05.693Z,82.20
2018-01-22T08:49:05.865Z,82.20
2018-01-22T08:50:06.555Z,82.20
2018-01-22T08:51:11.282Z,82.20
2018-01-22T08:52:10.712Z,82.20
2018-01-22T08:53:06.071Z,82.20
2018-01-22T08:54:05.955Z,82.20
2018-01-22T08:55:06.247Z,82.20
2018-01-22T08:56:08.810Z,81.60
2018-01-22T08:57:11.281Z,81.60
2018-01-22T08:58:10.851Z,81.70
2018-01-22T08:59:06.276Z,81.70
2018-01-22T09:00:10.522Z,81.40
2018-01-22T09:01:11.063Z,81.50
2018-01-22T09:02:08.314Z,81.60
2018-01-22T09:03:06.048Z,81.50
2018-01-22T09:04:06.214Z,81.60
2018-01-22T09:05:10.738Z,81.70
2018-01-22T09:06:06.057Z,81.80
2018-01-22T09:07:08.264Z,81.90
2018-01-22T09:08:05.605Z,81.90
2018-01-22T09:09:06.368Z,82.00
2018-01-22T09:10:05.531Z,81.90
2018-01-22T09:11:08.980Z,81.80
2018-01-22T09:12:11.614Z,81.90
2018-01-22T09:13:06.036Z,81.90
2018-01-22T09:14:08.824Z,82.00
2018-01-22T09:15:06.336Z,81.90
2018-01-22T09:16:06.490Z,82.10
2018-01-22T09:17:05.982Z,82.00
2018-01-22T09:18:05.902Z,81.70
2018-01-22T09:19:05.807Z,81.60
2018-01-22T09:20:05.866Z,81.50
2018-01-22T09:21:05.805Z,81.60
2018-01-22T09:22:06.102Z,81.60
2018-01-22T09:23:05.679Z,81.70
2018-01-22T09:24:06.483Z,81.80
2018-01-22T09:25:06.440Z,81.80
2018-01-22T09:26:06.030Z,81.80
2018-01-22T09:27:06.484Z,81.80
2018-01-22T09:28:05.894Z,81.80
2018-01-22T09:29:09.384Z,81.90
2018-01-22T09:30:10.822Z,81.90
2018-01-22T09:31:06.355Z,81.90
2018-01-22T09:32:08.776Z,82.00
2018-01-22T09:33:06.261Z,82.00
2018-01-22T09:34:06.266Z,82.00
2018-01-22T09:35:05.727Z,81.90
2018-01-22T09:36:05.896Z,81.90
2018-01-22T09:37:05.689Z,82.10
2018-01-22T09:38:11.293Z,81.80
2018-01-22T09:39:11.492Z,81.80
2018-01-22T09:40:05.958Z,81.90
2018-01-22T09:41:05.703Z,81.70
2018-01-22T09:42:10.528Z,81.60
2018-01-22T09:43:10.945Z,81.60
2018-01-22T09:44:06.159Z,81.40
2018-01-22T09:45:05.707Z,81.20
2018-01-22T09:46:09.329Z,81.20
2018-01-22T09:47:05.802Z,81.00
2018-01-22T09:48:09.320Z,81.20
2018-01-22T09:49:10.961Z,81.40
2018-01-22T09:50:08.845Z,81.60
2018-01-22T09:51:06.372Z,81.60
2018-01-22T09:52:06.474Z,81.60
2018-01-22T09:53:06.490Z,81.60
2018-01-22T09:54:10.995Z,81.70
2018-01-22T09:55:05.480Z,81.70
2018-01-22T09:56:06.658Z,81.80
2018-01-22T09:57:09.021Z,81.90
2018-01-22T09:58:08.270Z,81.90
2018-01-22T09:59:08.423Z,82.00
2018-01-22T10:00:05.928Z,82.10
2018-01-22T10:01:08.164Z,81.90
2018-01-22T10:02:13.427Z,81.90
2018-01-22T10:03:05.934Z,81.90
2018-01-22T10:04:06.666Z,82.00
2018-01-22T10:05:08.787Z,82.10
2018-01-22T10:06:09.135Z,82.10
2018-01-22T10:07:05.694Z,82.10
2018-01-22T10:08:05.800Z,82.10
2018-01-22T10:09:06.166Z,82.00
2018-01-22T10:10:06.290Z,82.20
2018-01-22T10:11:08.462Z,82.30
2018-01-22T10:12:05.972Z,82.30
2018-01-22T10:13:10.908Z,82.30
2018-01-22T10:14:07.270Z,82.30
2018-01-22T10:15:06.101Z,82.30
2018-01-22T10:16:05.665Z,82.30
2018-01-22T10:17:06.127Z,82.30
2018-01-22T10:18:05.880Z,82.30
2018-01-22T10:19:11.482Z,82.30
2018-01-22T10:20:05.892Z,82.30
2018-01-22T10:21:05.692Z,82.30
2018-01-22T10:22:10.961Z,82.20
2018-01-22T10:23:10.621Z,82.20
2018-01-22T10:24:06.266Z,82.20
2018-01-22T10:25:08.270Z,82.10
2018-01-22T10:26:08.685Z,82.10
2018-01-22T10:27:06.262Z,82.10
2018-01-22T10:28:06.306Z,82.10
2018-01-22T10:29:11.228Z,82.20
2018-01-22T10:30:07.952Z,82.30
2018-01-22T10:31:08.877Z,82.30
2018-01-22T10:32:09.702Z,82.00
2018-01-22T10:33:06.200Z,82.00
2018-01-22T10:34:05.902Z,82.00
2018-01-22T10:35:06.023Z,82.10
2018-01-22T10:36:10.644Z,82.20
2018-01-22T10:37:06.241Z,82.20
2018-01-22T10:38:06.256Z,82.20
2018-01-22T10:39:11.403Z,82.20
2018-01-22T10:40:05.688Z,82.30
2018-01-22T10:41:08.823Z,82.50
2018-01-22T10:42:05.792Z,82.50
2018-01-22T10:43:10.821Z,82.30
2018-01-22T10:44:08.828Z,82.10
2018-01-22T10:45:09.431Z,82.20
2018-01-22T10:46:06.144Z,82.10
2018-01-22T10:47:06.038Z,82.20
2018-01-22T10:48:05.586Z,82.30
2018-01-22T10:49:10.704Z,82.50
2018-01-22T10:50:11.254Z,82.50
2018-01-22T10:51:05.768Z,82.50
2018-01-22T10:52:05.869Z,82.60
2018-01-22T10:53:09.659Z,82.10
2018-01-22T10:54:06.186Z,82.10
2018-01-22T10:55:06.245Z,81.80
2018-01-22T10:56:06.242Z,81.80
2018-01-22T10:57:05.595Z,81.80
2018-01-22T10:58:06.520Z,81.70
2018-01-22T10:59:06.071Z,81.70
2018-01-22T11:00:05.832Z,81.50
2018-01-22T11:01:06.528Z,81.20
2018-01-22T11:02:06.401Z,81.30
2018-01-22T11:03:05.832Z,81.50
2018-01-22T11:04:06.227Z,81.40
2018-01-22T11:05:06.131Z,81.30
2018-01-22T11:06:06.160Z,81.00
2018-01-22T11:07:06.219Z,81.00
2018-01-22T11:08:11.532Z,80.90
2018-01-22T11:09:10.979Z,80.80
2018-01-22T11:10:06.438Z,80.80
2018-01-22T11:11:06.100Z,80.80
2018-01-22T11:12:08.450Z,80.60
2018-01-22T11:13:05.928Z,80.60
2018-01-22T11:14:05.711Z,80.60
2018-01-22T11:15:06.020Z,80.40
2018-01-22T11:16:11.375Z,80.40
2018-01-22T11:17:10.873Z,80.30
2018-01-22T11:18:06.258Z,80.30
2018-01-22T11:19:06.255Z,80.30
2018-01-22T11:20:05.671Z,80.10
2018-01-22T11:21:05.669Z,80.10
2018-01-22T11:22:08.172Z,80.10
2018-01-22T11:23:05.690Z,80.20
2018-01-22T11:24:11.123Z,80.00
2018-01-22T11:25:06.526Z,80.00
2018-01-22T11:26:09.016Z,80.30
2018-01-22T11:27:11.589Z,80.30
2018-01-22T11:28:06.036Z,80.30
2018-01-22T11:29:13.448Z,80.60
2018-01-22T11:30:10.875Z,80.60
2018-01-22T11:31:09.569Z,80.70
2018-01-22T11:32:13.542Z,80.90
2018-01-22T11:33:16.010Z,80.90
2018-01-22T11:34:14.035Z,81.00
2018-01-22T11:35:11.436Z,81.10
2018-01-22T11:36:08.085Z,81.20
2018-01-22T11:37:05.537Z,81.20
2018-01-22T11:38:09.680Z,81.20
2018-01-22T11:39:09.377Z,81.30
2018-01-22T11:40:05.850Z,81.30
2018-01-22T11:41:10.799Z,81.20
2018-01-22T11:42:08.843Z,81.10
2018-01-22T11:43:06.301Z,81.10
2018-01-22T11:44:06.444Z,81.00
2018-01-22T11:45:06.205Z,80.80
2018-01-22T11:46:11.084Z,80.50
2018-01-22T11:47:06.495Z,80.60
2018-01-22T11:48:05.983Z,80.60
2018-01-22T11:49:06.010Z,80.60
2018-01-22T11:50:05.574Z,80.80
2018-01-22T11:51:05.996Z,80.80
2018-01-22T11:52:06.429Z,80.90
2018-01-22T11:53:08.658Z,81.20
2018-01-22T11:54:11.106Z,81.30
2018-01-22T11:55:10.614Z,81.20
2018-01-22T11:56:10.755Z,81.30
2018-01-22T11:57:16.147Z,81.50
2018-01-22T11:58:13.203Z,81.70
2018-01-22T11:59:10.871Z,81.70
2018-01-22T12:00:11.194Z,81.70
2018-01-22T12:01:08.608Z,81.80
2018-01-22T12:02:08.649Z,81.60
2018-01-22T12:03:05.638Z,81.60
2018-01-22T12:04:06.151Z,81.80
2018-01-22T12:05:08.223Z,82.20
2018-01-22T12:06:05.944Z,82.20
2018-01-22T12:07:05.785Z,82.10
2018-01-22T12:08:05.949Z,81.90
2018-01-22T12:09:05.956Z,81.90
2018-01-22T12:10:06.316Z,81.80
2018-01-22T12:11:08.379Z,81.80
2018-01-22T12:12:08.727Z,81.40
2018-01-22T12:13:11.601Z,81.30
2018-01-22T12:14:06.235Z,81.30
2018-01-22T12:15:10.802Z,81.10
2018-01-22T12:16:06.007Z,81.10
2018-01-22T12:17:05.866Z,81.00
2018-01-22T12:18:05.864Z,80.90
2018-01-22T12:19:11.260Z,80.90
2018-01-22T12:20:05.531Z,81.00
2018-01-22T12:21:06.442Z,81.10
2018-01-22T12:22:05.748Z,81.20
2018-01-22T12:23:05.799Z,81.30
2018-01-22T12:24:05.634Z,81.20
2018-01-22T12:25:08.200Z,81.00
2018-01-22T12:26:06.005Z,81.00
2018-01-22T12:27:09.627Z,80.80
2018-01-22T12:28:09.005Z,80.70
2018-01-22T12:29:11.522Z,80.70
2018-01-22T12:30:11.015Z,80.60
2018-01-22T12:31:06.649Z,80.60
2018-01-22T12:32:11.332Z,80.50
2018-01-22T12:33:06.573Z,80.40
2018-01-22T12:34:06.171Z,80.40
2018-01-22T12:35:10.740Z,79.90
2018-01-22T12:36:09.936Z,79.80
2018-01-22T12:37:06.594Z,79.70
2018-01-22T12:38:06.322Z,79.60
2018-01-22T12:39:08.603Z,79.50
2018-01-22T12:40:08.706Z,79.50
2018-01-22T12:41:10.951Z,79.60
2018-01-22T12:42:11.409Z,79.60
2018-01-22T12:43:06.051Z,79.60
2018-01-22T12:44:05.961Z,79.70
2018-01-22T12:45:09.852Z,79.70
2018-01-22T12:46:06.348Z,79.70
2018-01-22T12:47:08.835Z,80.00
2018-01-22T12:48:08.752Z,80.00
2018-01-22T12:49:08.764Z,80.10
2018-01-22T12:50:08.299Z,80.10
2018-01-22T12:51:08.340Z,80.20
2018-01-22T12:52:08.721Z,80.30